Gould, Arkansas
Current Conditions -  °F | °C
As of 6:53 AM on Wednesday 26 Nov 2014 (Local Time) from KPBF Reporting Station
Clear Clear  
Wind Chill: -2°   Ceiling: Unl
Heat Index:   Visibility: 10mi
Dew Point: -1°   Wind: 5mph
Humidity: 89%   Direction: 140°SE
Pressure: 30.11"   Gusts: NA
Location:  33.99°N, 91.56°W
Report Text: KPBF 261253Z AUTO 14004KT 10SM CLR 01/M01 A3011 RMK AO2 SLP195 T00061011
Loading
Personal Weather Stations






























Interactive Weather Map New forecast layout! Learn more

10-Day Weather Forecast

Advertisements
Track Severe Weather on mobile